Time;durP1;ratioP1;P1;durP2;ratioP2;P2;SDS_P1;SDS_P2;PMS_P1;PMS_P2;Temp;Humidity;BMP_temperature;BMP_pressure;BME280_temperature;BME280_humidity;BME280_pressure;Samples;Min_cycle;Max_cycle;Signal;HPM_P1;HPM_P2
2021/03/29 00:02:10;;;;;;;9.82;4.32;;;8.70;97.00;;;;;;5032441;28;20030;-86
2021/03/29 00:04:36;;;;;;;13.43;4.43;;;8.70;96.90;;;;;;5031202;28;20024;-85
2021/03/29 00:07:04;;;;;;;12.02;3.88;;;8.70;96.90;;;;;;5030013;28;20108;-86
2021/03/29 00:09:32;;;;;;;12.23;3.78;;;8.70;96.90;;;;;;5032257;28;20096;-86
2021/03/29 00:12:01;;;;;;;14.02;4.20;;;8.70;96.90;;;;;;5038277;28;20025;-86
2021/03/29 00:14:28;;;;;;;7.10;3.43;;;8.70;96.90;;;;;;5046397;28;20021;-86
2021/03/29 00:16:54;;;;;;;13.43;3.95;;;8.70;96.90;;;;;;5046339;28;20037;-86
2021/03/29 00:19:21;;;;;;;11.98;4.82;;;8.60;96.90;;;;;;5029513;28;20021;-86
2021/03/29 00:21:47;;;;;;;10.27;4.63;;;8.60;96.90;;;;;;5030971;28;20033;-86
2021/03/29 00:24:13;;;;;;;9.35;4.05;;;8.50;97.00;;;;;;5032218;28;20021;-86
2021/03/29 00:26:40;;;;;;;9.75;3.85;;;8.50;97.00;;;;;;5045721;28;20022;-86
2021/03/29 00:29:06;;;;;;;10.15;3.72;;;8.60;97.10;;;;;;5029295;28;20020;-86
2021/03/29 00:31:32;;;;;;;11.90;4.40;;;8.60;97.00;;;;;;5046542;28;20025;-86
2021/03/29 00:33:59;;;;;;;9.35;3.47;;;8.50;97.10;;;;;;5043731;28;20030;-86
2021/03/29 00:36:27;;;;;;;8.60;4.03;;;8.50;97.10;;;;;;5030736;28;20550;-86
2021/03/29 00:38:54;;;;;;;11.82;4.70;;;8.50;97.20;;;;;;5030536;28;20097;-86
2021/03/29 00:41:21;;;;;;;13.93;4.32;;;8.50;97.30;;;;;;5028524;28;20056;-86
2021/03/29 00:43:48;;;;;;;11.52;4.97;;;8.60;97.40;;;;;;5032101;28;20419;-85
2021/03/29 00:46:17;;;;;;;10.73;4.53;;;8.60;97.50;;;;;;5029251;28;20075;-86
2021/03/29 00:48:44;;;;;;;17.40;4.68;;;8.60;97.50;;;;;;5026752;28;20100;-86
2021/03/29 00:51:17;;;;;;;13.95;5.00;;;8.70;97.80;;;;;;5046261;28;20072;-85
2021/03/29 00:53:49;;;;;;;11.70;4.78;;;8.70;97.50;;;;;;5047467;28;20017;-86
2021/03/29 00:56:16;;;;;;;11.13;4.75;;;8.70;97.50;;;;;;5040583;28;20032;-86
2021/03/29 00:58:45;;;;;;;11.80;4.50;;;8.70;97.50;;;;;;5032090;28;20057;-86
2021/03/29 01:01:19;;;;;;;13.05;5.13;;;8.70;97.50;;;;;;5031196;28;20033;-86
2021/03/29 01:03:52;;;;;;;18.55;5.78;;;8.70;97.60;;;;;;5028415;28;20018;-86
2021/03/29 01:06:20;;;;;;;14.25;4.90;;;8.70;97.70;;;;;;5044694;28;20025;-86
2021/03/29 01:08:52;;;;;;;13.65;5.82;;;8.70;97.80;;;;;;5040440;28;20468;-86
2021/03/29 01:11:25;;;;;;;9.82;5.10;;;8.70;97.80;;;;;;5030280;28;20029;-86
2021/03/29 01:13:56;;;;;;;13.00;4.80;;;8.70;97.90;;;;;;5028417;28;20026;-86
2021/03/29 01:16:23;;;;;;;15.50;5.07;;;8.70;97.90;;;;;;5031633;28;20511;-86
2021/03/29 01:18:54;;;;;;;15.38;5.20;;;8.70;98.00;;;;;;5046687;28;20243;-86
2021/03/29 01:21:40;;;;;;;13.05;5.20;;;8.70;98.00;;;;;;5027678;28;20041;-85
2021/03/29 01:24:19;;;;;;;12.85;5.38;;;8.70;98.10;;;;;;5026111;28;20014;-86
2021/03/29 01:26:46;;;;;;;13.40;5.23;;;8.60;98.20;;;;;;5044541;28;20029;-86
2021/03/29 01:29:17;;;;;;;11.55;4.88;;;8.60;98.30;;;;;;5031394;28;20391;-86
2021/03/29 01:31:43;;;;;;;15.95;5.13;;;8.60;98.20;;;;;;5035180;28;20021;-86
2021/03/29 01:34:13;;;;;;;15.43;5.55;;;8.60;98.30;;;;;;5034618;28;20036;-86
2021/03/29 01:36:41;;;;;;;12.80;5.13;;;8.60;98.30;;;;;;5050437;28;20021;-86
2021/03/29 01:39:09;;;;;;;14.68;5.63;;;8.60;98.30;;;;;;5044677;28;20068;-86
2021/03/29 01:41:35;;;;;;;12.73;5.72;;;8.60;98.30;;;;;;5031846;28;20052;-86
2021/03/29 01:44:01;;;;;;;17.50;5.32;;;8.60;98.30;;;;;;5035313;28;20088;-86
2021/03/29 01:46:28;;;;;;;11.18;5.07;;;8.60;98.30;;;;;;5035197;28;20018;-86
2021/03/29 01:48:54;;;;;;;17.13;5.25;;;8.60;98.30;;;;;;5049727;28;20481;-85
2021/03/29 01:51:20;;;;;;;13.40;5.35;;;8.70;98.30;;;;;;5032203;28;20029;-86
2021/03/29 01:53:47;;;;;;;14.10;5.97;;;8.70;98.10;;;;;;5035019;28;20409;-86
2021/03/29 01:56:13;;;;;;;10.43;5.10;;;8.80;97.90;;;;;;5032225;28;20037;-86
2021/03/29 01:58:39;;;;;;;15.75;5.55;;;8.80;97.80;;;;;;5031593;28;20026;-86
2021/03/29 02:01:08;;;;;;;18.77;7.00;;;8.80;97.70;;;;;;5034121;28;20448;-86
2021/03/29 02:03:35;;;;;;;13.27;5.10;;;8.80;97.60;;;;;;5034912;28;20092;-86
2021/03/29 02:06:02;;;;;;;17.77;6.60;;;8.80;97.50;;;;;;5047431;28;20382;-86
2021/03/29 02:08:29;;;;;;;18.33;5.72;;;8.90;97.50;;;;;;5034798;28;20024;-86
2021/03/29 02:10:56;;;;;;;12.57;4.80;;;8.90;97.40;;;;;;5033462;28;20033;-87
2021/03/29 02:13:27;;;;;;;16.00;5.57;;;8.80;97.40;;;;;;5033532;28;20499;-85
2021/03/29 02:15:58;;;;;;;18.50;5.70;;;8.90;97.30;;;;;;5034898;28;20379;-86
2021/03/29 02:18:29;;;;;;;19.08;5.70;;;8.80;97.20;;;;;;5034645;28;20052;-86
2021/03/29 02:21:01;;;;;;;16.83;5.47;;;8.90;97.20;;;;;;5047133;28;20497;-86
2021/03/29 02:23:29;;;;;;;14.57;5.78;;;8.80;97.10;;;;;;5034630;28;20051;-86
2021/03/29 02:25:56;;;;;;;13.75;5.13;;;8.80;97.10;;;;;;5032197;28;20022;-86
2021/03/29 02:28:22;;;;;;;10.98;5.40;;;8.80;97.00;;;;;;5031602;28;20511;-86
2021/03/29 02:30:48;;;;;;;13.10;6.13;;;8.80;97.00;;;;;;5047144;28;20049;-86
2021/03/29 02:33:16;;;;;;;16.95;6.43;;;8.80;97.10;;;;;;5033995;28;20017;-86
2021/03/29 02:35:42;;;;;;;15.23;6.65;;;8.80;97.20;;;;;;5033952;28;20028;-86
2021/03/29 02:38:13;;;;;;;16.48;6.97;;;8.70;97.20;;;;;;5033676;28;20079;-86
2021/03/29 02:40:39;;;;;;;19.27;8.00;;;8.70;97.30;;;;;;5044423;28;20045;-85
2021/03/29 02:43:06;;;;;;;17.55;8.25;;;8.70;97.40;;;;;;5047694;28;20481;-86
2021/03/29 02:45:35;;;;;;;17.75;8.18;;;8.70;97.40;;;;;;5031183;28;20108;-85
2021/03/29 02:48:06;;;;;;;14.50;8.30;;;8.70;97.30;;;;;;5033560;28;20105;-86
2021/03/29 02:50:33;;;;;;;21.00;9.43;;;8.70;97.20;;;;;;5048426;28;20052;-85
2021/03/29 02:53:03;;;;;;;20.27;9.27;;;8.70;97.20;;;;;;5043103;28;20047;-86
2021/03/29 02:55:31;;;;;;;24.00;10.80;;;8.80;97.10;;;;;;5029723;28;20492;-86
2021/03/29 02:57:59;;;;;;;21.20;9.48;;;8.80;97.00;;;;;;5045329;28;20819;-86
2021/03/29 03:00:26;;;;;;;25.08;10.55;;;8.80;96.80;;;;;;5028996;28;20021;-86
2021/03/29 03:02:55;;;;;;;25.60;11.32;;;8.80;96.70;;;;;;5032530;28;20051;-86
2021/03/29 03:05:28;;;;;;;17.38;9.60;;;8.80;96.60;;;;;;5030535;28;20466;-85
2021/03/29 03:07:54;;;;;;;22.60;11.20;;;8.80;96.60;;;;;;5033688;28;20040;-86
2021/03/29 03:10:20;;;;;;;20.02;9.85;;;8.70;96.60;;;;;;5029529;28;20021;-86
2021/03/29 03:12:48;;;;;;;21.92;10.13;;;8.70;96.70;;;;;;5044117;28;20068;-86
2021/03/29 03:15:19;;;;;;;16.83;9.25;;;8.70;96.80;;;;;;5046025;28;20046;-86
2021/03/29 03:17:46;;;;;;;19.88;9.55;;;8.70;96.80;;;;;;5048085;28;20021;-86
2021/03/29 03:20:15;;;;;;;15.73;7.97;;;8.70;96.90;;;;;;5046254;28;20063;-86
2021/03/29 03:23:18;;;;;;;14.57;7.38;;;8.70;96.80;;;;;;5031278;28;20080;-85
2021/03/29 03:25:46;;;;;;;19.13;7.78;;;8.80;96.80;;;;;;5013597;28;20523;-86
2021/03/29 03:28:14;;;;;;;13.05;6.90;;;8.70;96.70;;;;;;5046617;28;20033;-85
2021/03/29 03:30:45;;;;;;;20.17;7.05;;;8.80;96.70;;;;;;5046140;28;20027;-85
2021/03/29 03:33:13;;;;;;;13.40;7.10;;;8.80;96.60;;;;;;5033241;28;20045;-86
2021/03/29 03:35:40;;;;;;;14.00;6.35;;;8.80;96.50;;;;;;5047371;28;20168;-86
2021/03/29 03:38:26;;;;;;;16.42;6.88;;;8.80;96.40;;;;;;5032925;28;20017;-86
2021/03/29 03:41:14;;;;;;;14.27;5.93;;;8.90;96.10;;;;;;5031601;28;20057;-86
2021/03/29 03:43:50;;;;;;;15.13;5.57;;;8.90;96.20;;;;;;5026376;28;20025;-86
2021/03/29 03:46:21;;;;;;;12.48;5.60;;;8.90;96.20;;;;;;5031622;28;20021;-86
2021/03/29 03:48:47;;;;;;;11.52;5.18;;;8.90;96.20;;;;;;5032316;28;20075;-86
2021/03/29 03:51:14;;;;;;;13.73;5.40;;;8.80;96.20;;;;;;5042312;28;20029;-86
2021/03/29 03:53:40;;;;;;;12.43;4.90;;;8.80;96.20;;;;;;5031199;28;20033;-86
2021/03/29 03:56:07;;;;;;;12.65;4.53;;;8.80;96.30;;;;;;5031646;28;20553;-86
2021/03/29 03:58:32;;;;;;;8.90;4.57;;;8.80;96.30;;;;;;5031043;28;20021;-85
2021/03/29 04:00:59;;;;;;;14.40;5.80;;;8.80;96.30;;;;;;5045167;28;20052;-86
2021/03/29 04:03:29;;;;;;;13.75;4.85;;;8.80;96.30;;;;;;5031305;28;20439;-86
2021/03/29 04:05:57;;;;;;;;;;;8.80;96.40;;;;;;5045527;28;20024;-86
2021/03/29 04:08:23;;;;;;;20.25;4.85;;;8.70;96.50;;;;;;5045454;28;19906;-86
2021/03/29 04:10:52;;;;;;;11.75;4.65;;;8.70;96.60;;;;;;5046064;28;20025;-86
2021/03/29 04:15:53;;;;;;;12.98;4.20;;;8.80;96.60;;;;;;5030963;28;20078;-86
2021/03/29 04:18:18;;;;;;;12.48;4.13;;;8.70;96.60;;;;;;5030822;28;20021;-86
2021/03/29 04:20:44;;;;;;;9.38;4.25;;;8.80;96.60;;;;;;5028358;28;20022;-87
2021/03/29 04:23:09;;;;;;;13.13;4.28;;;8.80;96.60;;;;;;5032361;28;20043;-86
2021/03/29 04:25:35;;;;;;;10.85;3.78;;;8.80;96.80;;;;;;5032159;28;20024;-86
2021/03/29 04:28:02;;;;;;;10.60;4.00;;;8.80;96.60;;;;;;5032103;28;20061;-86
2021/03/29 04:30:27;;;;;;;12.38;4.55;;;8.80;96.60;;;;;;5045959;28;20020;-86
2021/03/29 04:32:53;;;;;;;11.20;4.32;;;8.80;96.50;;;;;;5028372;28;20025;-86
2021/03/29 04:35:22;;;;;;;8.77;3.45;;;8.80;96.50;;;;;;5046579;28;20156;-84
2021/03/29 04:37:53;;;;;;;12.20;4.25;;;8.80;96.50;;;;;;5047503;28;20529;-86
2021/03/29 04:40:22;;;;;;;10.35;4.50;;;8.80;96.40;;;;;;5029274;28;20052;-86
2021/03/29 04:42:47;;;;;;;11.27;3.88;;;8.90;96.30;;;;;;5042917;28;20022;-86
2021/03/29 04:45:14;;;;;;;9.73;3.83;;;8.90;96.20;;;;;;5029140;28;20029;-86
2021/03/29 04:47:39;;;;;;;13.88;4.10;;;8.90;96.30;;;;;;5032030;28;20021;-86
2021/03/29 04:50:07;;;;;;;13.25;4.38;;;8.90;96.30;;;;;;5046634;28;20063;-86
2021/03/29 04:52:33;;;;;;;14.85;4.03;;;8.90;96.30;;;;;;5031725;28;20025;-86
2021/03/29 04:54:58;;;;;;;9.57;3.80;;;8.90;96.40;;;;;;5047228;28;20033;-86
2021/03/29 04:57:24;;;;;;;10.48;4.28;;;8.80;96.30;;;;;;5041904;28;20017;-86
2021/03/29 04:59:50;;;;;;;11.52;3.30;;;8.90;96.30;;;;;;5029302;28;20030;-86
2021/03/29 05:02:15;;;;;;;11.57;4.22;;;8.90;96.20;;;;;;5035325;28;20026;-86
2021/03/29 05:04:41;;;;;;;10.40;3.40;;;8.80;96.20;;;;;;5050918;28;20017;-86
2021/03/29 05:07:10;;;;;;;14.27;4.88;;;8.80;96.30;;;;;;5032168;28;20083;-85
2021/03/29 05:09:36;;;;;;;11.80;3.45;;;8.80;96.30;;;;;;5043504;28;20021;-86
2021/03/29 05:12:15;;;;;;;10.25;3.65;;;8.80;96.40;;;;;;5030783;28;20504;-85
2021/03/29 05:14:41;;;;;;;11.50;3.40;;;8.80;96.40;;;;;;5049779;28;20542;-85
2021/03/29 05:17:08;;;;;;;12.48;4.25;;;8.70;96.50;;;;;;5032762;28;20295;-85
2021/03/29 05:19:34;;;;;;;13.90;3.72;;;8.70;96.80;;;;;;5050592;28;20077;-85
2021/03/29 05:22:00;;;;;;;10.13;3.53;;;8.70;96.90;;;;;;5032355;28;20037;-85
2021/03/29 05:24:26;;;;;;;12.25;3.83;;;8.60;96.60;;;;;;5029112;28;20172;-86
2021/03/29 05:26:52;;;;;;;12.45;4.22;;;8.60;96.70;;;;;;5027160;28;20091;-86
2021/03/29 05:29:18;;;;;;;9.48;3.35;;;8.60;96.80;;;;;;5035470;28;20349;-86
2021/03/29 05:31:43;;;;;;;11.40;3.65;;;8.60;96.90;;;;;;5048238;28;20021;-86
2021/03/29 05:34:11;;;;;;;11.90;3.33;;;8.60;97.00;;;;;;5032851;28;20041;-83
2021/03/29 05:36:38;;;;;;;11.75;3.50;;;8.60;97.10;;;;;;5033812;28;20022;-84
2021/03/29 05:39:04;;;;;;;11.77;4.15;;;8.60;97.00;;;;;;5024664;28;20044;-83
2021/03/29 05:41:31;;;;;;;8.40;3.58;;;8.70;97.00;;;;;;5015585;28;20037;-83
2021/03/29 05:43:56;;;;;;;11.95;3.45;;;8.70;97.00;;;;;;5015840;28;20022;-83
2021/03/29 05:46:22;;;;;;;11.30;3.80;;;8.70;97.00;;;;;;5014606;28;20076;-83
2021/03/29 05:48:47;;;;;;;10.15;3.20;;;8.80;97.10;;;;;;5015974;28;20029;-83
2021/03/29 05:51:13;;;;;;;7.55;3.97;;;8.80;97.10;;;;;;5016043;28;20112;-83
2021/03/29 05:53:39;;;;;;;10.98;3.40;;;8.80;97.00;;;;;;5015735;28;20465;-83
2021/03/29 05:56:06;;;;;;;8.82;3.30;;;8.90;97.00;;;;;;5015903;28;20474;-82
2021/03/29 05:58:38;;;;;;;10.27;3.00;;;8.90;97.00;;;;;;5027113;28;20022;-86
2021/03/29 06:01:04;;;;;;;10.18;3.97;;;8.90;97.00;;;;;;5022965;28;20524;-84
2021/03/29 06:03:35;;;;;;;9.82;3.35;;;9.00;97.00;;;;;;5028716;28;20038;-84
2021/03/29 06:06:21;;;;;;;10.70;3.42;;;9.00;96.90;;;;;;5032986;28;20108;-84
2021/03/29 06:08:52;;;;;;;10.90;3.63;;;9.00;96.80;;;;;;5033788;28;20037;-85
2021/03/29 06:11:39;;;;;;;11.68;4.25;;;9.00;97.00;;;;;;5033714;28;20025;-84
2021/03/29 06:14:15;;;;;;;10.50;3.17;;;9.00;97.30;;;;;;5032553;28;20025;-84
2021/03/29 06:17:06;;;;;;;10.80;3.67;;;9.00;97.00;;;;;;5016662;28;20029;-84
2021/03/29 06:19:57;;;;;;;8.20;3.25;;;9.00;97.00;;;;;;5014392;28;20072;-84
2021/03/29 06:22:24;;;;;;;9.90;4.03;;;9.00;97.00;;;;;;5015312;28;20367;-85
2021/03/29 06:25:13;;;;;;;9.13;3.42;;;9.10;97.00;;;;;;5017206;28;20068;-85
2021/03/29 06:27:43;;;;;;;8.97;2.87;;;9.10;97.00;;;;;;5028504;28;20108;-84
2021/03/29 06:30:22;;;;;;;8.27;3.03;;;9.10;97.00;;;;;;5030804;28;20037;-84
2021/03/29 06:33:07;;;;;;;11.98;3.50;;;9.10;96.90;;;;;;5030421;28;20041;-84
2021/03/29 06:35:37;;;;;;;11.95;4.07;;;9.20;96.80;;;;;;5046878;28;20476;-85
2021/03/29 06:38:10;;;;;;;11.80;3.13;;;9.20;96.80;;;;;;5033195;28;20083;-85
2021/03/29 06:40:38;;;;;;;9.38;3.35;;;9.30;96.70;;;;;;5033549;28;20041;-85
2021/03/29 06:43:30;;;;;;;11.60;4.07;;;9.30;96.90;;;;;;5034837;28;20256;-85
2021/03/29 06:45:59;;;;;;;10.35;4.05;;;9.30;96.50;;;;;;5033483;28;20025;-84
2021/03/29 06:48:36;;;;;;;13.07;4.45;;;9.30;96.40;;;;;;5033835;28;20465;-84
2021/03/29 06:51:20;;;;;;;10.43;3.38;;;9.40;96.40;;;;;;5032569;28;20056;-84
2021/03/29 06:53:57;;;;;;;7.95;2.97;;;9.40;96.50;;;;;;5009767;28;20121;-83
2021/03/29 06:56:31;;;;;;;6.90;3.40;;;9.40;96.40;;;;;;5042141;28;20105;-83
2021/03/29 06:59:06;;;;;;;11.35;3.63;;;9.40;96.50;;;;;;5047833;28;20052;-84
2021/03/29 07:01:35;;;;;;;12.05;3.35;;;9.40;96.50;;;;;;5033707;28;20537;-83
2021/03/29 07:04:02;;;;;;;13.98;3.60;;;9.40;96.60;;;;;;5030824;28;20034;-83
2021/03/29 07:06:31;;;;;;;8.45;3.17;;;9.40;96.60;;;;;;5033877;28;20105;-84
2021/03/29 07:09:05;;;;;;;12.18;3.83;;;9.40;96.50;;;;;;5032841;28;20028;-83
2021/03/29 07:11:31;;;;;;;11.85;3.70;;;9.50;96.60;;;;;;5049608;28;20107;-83
2021/03/29 07:13:58;;;;;;;10.82;3.72;;;9.50;96.60;;;;;;5034091;28;20061;-83
2021/03/29 07:16:25;;;;;;;9.52;3.35;;;9.60;96.70;;;;;;5033967;28;20046;-83
2021/03/29 07:18:55;;;;;;;13.68;4.30;;;9.60;96.60;;;;;;5032714;28;20084;-83
2021/03/29 07:21:21;;;;;;;12.82;4.03;;;9.70;96.40;;;;;;5032662;28;20108;-84
2021/03/29 07:23:47;;;;;;;11.25;3.70;;;9.70;96.10;;;;;;5032249;28;20462;-83
2021/03/29 07:26:35;;;;;;;9.48;3.55;;;9.80;96.30;;;;;;5032487;28;20028;-84
2021/03/29 07:29:32;;;;;;;8.40;3.40;;;9.90;96.50;;;;;;5049020;28;20029;-83
2021/03/29 07:31:58;;;;;;;10.07;3.65;;;10.00;96.10;;;;;;5031048;28;20024;-83
2021/03/29 07:34:42;;;;;;;12.50;3.83;;;10.00;95.90;;;;;;5031883;28;20032;-83
2021/03/29 07:37:27;;;;;;;13.93;3.80;;;10.10;95.90;;;;;;5020404;28;20105;-83
2021/03/29 07:39:53;;;;;;;8.63;3.33;;;10.10;95.60;;;;;;5038325;28;20149;-84
2021/03/29 07:42:24;;;;;;;10.52;3.88;;;10.20;96.00;;;;;;5014956;28;20481;-84
2021/03/29 07:44:59;;;;;;;8.57;3.65;;;10.20;95.20;;;;;;5033419;28;20029;-83
2021/03/29 07:47:53;;;;;;;8.25;3.40;;;10.30;95.40;;;;;;5048793;28;20017;-83
2021/03/29 07:50:25;;;;;;;10.93;3.90;;;10.30;95.60;;;;;;5048769;28;20488;-83
2021/03/29 07:52:56;;;;;;;7.93;3.10;;;10.40;95.40;;;;;;5048526;28;20060;-84
2021/03/29 07:55:35;;;;;;;9.40;3.10;;;10.50;95.20;;;;;;5032045;28;20030;-83
2021/03/29 07:58:02;;;;;;;11.50;3.70;;;10.50;95.40;;;;;;5031941;28;20112;-83
2021/03/29 08:00:31;;;;;;;11.90;3.50;;;10.60;95.60;;;;;;5037314;28;20053;-83
2021/03/29 08:03:01;;;;;;;10.02;4.22;;;10.70;95.60;;;;;;5030809;28;20032;-83
2021/03/29 08:05:45;;;;;;;7.55;3.22;;;10.70;95.60;;;;;;5031845;28;20025;-83
2021/03/29 08:08:26;;;;;;;11.20;3.60;;;10.80;95.80;;;;;;5031998;28;20029;-83
2021/03/29 08:10:57;;;;;;;11.85;4.03;;;10.90;94.70;;;;;;5018636;28;20032;-83
2021/03/29 08:13:48;;;;;;;7.40;3.28;;;10.90;94.80;;;;;;5028404;28;20022;-83
2021/03/29 08:16:24;;;;;;;11.20;3.50;;;11.00;94.70;;;;;;5031780;28;20080;-83
2021/03/29 08:19:10;;;;;;;11.65;3.92;;;11.10;94.20;;;;;;5031250;28;20116;-83
2021/03/29 08:21:54;;;;;;;8.30;3.50;;;11.10;94.50;;;;;;5011774;28;20079;-83
2021/03/29 08:24:29;;;;;;;8.63;3.88;;;11.20;94.20;;;;;;5013154;28;20030;-83
2021/03/29 08:26:57;;;;;;;9.98;3.88;;;11.30;93.90;;;;;;5030089;28;20041;-83
2021/03/29 08:29:33;;;;;;;11.73;3.58;;;11.30;93.60;;;;;;5017488;28;20022;-83
2021/03/29 08:32:25;;;;;;;10.02;3.53;;;11.50;94.00;;;;;;5025998;28;20071;-83
2021/03/29 08:35:12;;;;;;;10.13;3.38;;;11.60;94.00;;;;;;5020982;28;20030;-83
2021/03/29 08:37:47;;;;;;;8.48;3.53;;;11.70;93.20;;;;;;5028422;28;20030;-83
2021/03/29 08:40:26;;;;;;;9.68;3.38;;;11.70;92.80;;;;;;5016637;28;20051;-83
2021/03/29 08:43:00;;;;;;;9.30;3.42;;;11.80;91.90;;;;;;5031267;28;20048;-83
2021/03/29 08:45:27;;;;;;;13.43;3.67;;;11.90;92.50;;;;;;5031549;28;20028;-84
2021/03/29 08:47:58;;;;;;;11.80;3.65;;;12.00;91.90;;;;;;5031402;28;20481;-84
2021/03/29 08:50:28;;;;;;;6.65;3.08;;;12.10;91.10;;;;;;5031427;28;20035;-84
2021/03/29 08:52:59;;;;;;;7.70;2.75;;;12.20;90.40;;;;;;5032286;28;20243;-83
2021/03/29 08:55:39;;;;;;;12.45;3.20;;;12.30;90.70;;;;;;5032685;28;20022;-83
2021/03/29 08:58:06;;;;;;;8.60;2.72;;;12.40;89.60;;;;;;5030829;28;20064;-84
2021/03/29 09:00:41;;;;;;;11.50;4.00;;;12.50;89.50;;;;;;5047955;28;20063;-83
2021/03/29 09:03:17;;;;;;;9.00;3.28;;;12.60;90.50;;;;;;5047933;28;20029;-83
2021/03/29 09:05:42;;;;;;;8.77;3.03;;;12.80;87.60;;;;;;5047931;28;20026;-83
2021/03/29 09:08:12;;;;;;;7.63;2.65;;;12.90;86.20;;;;;;5031445;28;20025;-83
2021/03/29 09:10:38;;;;;;;;;;;13.00;85.10;;;;;;5048353;28;20041;-83
2021/03/29 09:13:15;;;;;;;9.88;2.22;;;13.00;85.10;;;;;;5032611;28;20288;-83
2021/03/29 09:15:43;;;;;;;7.00;2.42;;;13.10;82.90;;;;;;5029769;28;20018;-84
2021/03/29 09:18:10;;;;;;;7.90;2.33;;;13.30;82.70;;;;;;5033031;28;20018;-83
2021/03/29 09:20:45;;;;;;;9.45;2.40;;;13.50;80.60;;;;;;5031155;28;20056;-83
2021/03/29 09:23:14;;;;;;;8.20;2.80;;;15.00;77.60;;;;;;5031161;28;20053;-83
2021/03/29 09:25:44;;;;;;;9.40;2.60;;;16.60;68.40;;;;;;5032300;28;20032;-83
2021/03/29 09:28:32;;;;;;;11.00;2.90;;;17.90;62.90;;;;;;5029012;28;20014;-83
2021/03/29 09:31:04;;;;;;;8.63;2.47;;;18.60;60.80;;;;;;5030828;28;20538;-83
2021/03/29 09:33:30;;;;;;;8.95;2.63;;;19.20;57.60;;;;;;5032410;28;20112;-83
2021/03/29 09:35:56;;;;;;;5.50;1.80;;;19.70;54.60;;;;;;5047243;28;20087;-83
2021/03/29 09:38:40;;;;;;;7.40;2.42;;;20.20;55.90;;;;;;5047480;28;20389;-82
2021/03/29 09:41:18;;;;;;;7.07;2.13;;;20.80;52.60;;;;;;5030192;28;20044;-83
2021/03/29 09:43:46;;;;;;;6.95;2.35;;;21.30;52.20;;;;;;5030342;28;20026;-84
2021/03/29 09:46:12;;;;;;;10.93;2.75;;;21.60;48.70;;;;;;5031971;28;20030;-83
2021/03/29 09:48:37;;;;;;;5.72;1.95;;;21.50;49.00;;;;;;5034921;28;20064;-84
2021/03/29 09:51:17;;;;;;;7.03;2.13;;;21.40;47.50;;;;;;5034504;28;20155;-84
2021/03/29 09:53:42;;;;;;;5.63;2.20;;;21.90;46.10;;;;;;5035218;28;20021;-84
2021/03/29 09:56:08;;;;;;;8.65;2.17;;;22.40;45.30;;;;;;5035378;28;20040;-84
2021/03/29 09:58:42;;;;;;;11.52;2.60;;;22.40;44.30;;;;;;5034184;28;20037;-84
2021/03/29 10:01:18;;;;;;;5.93;2.20;;;22.30;45.00;;;;;;5033158;28;20025;-84
2021/03/29 10:03:50;;;;;;;7.10;2.00;;;22.30;44.80;;;;;;5034202;28;20481;-83
2021/03/29 10:06:19;;;;;;;8.57;2.35;;;22.50;43.70;;;;;;5034128;28;20401;-83
2021/03/29 10:09:03;;;;;;;7.03;2.20;;;22.60;43.00;;;;;;5035334;28;20029;-83
2021/03/29 10:11:46;;;;;;;7.05;1.80;;;22.70;42.90;;;;;;5034074;28;20041;-83
2021/03/29 10:14:15;;;;;;;8.38;2.60;;;22.80;44.00;;;;;;5035022;28;20028;-84
2021/03/29 10:16:44;;;;;;;;;;;23.50;42.60;;;;;;5034044;28;20025;-84
2021/03/29 10:19:21;;;;;;;9.30;2.00;;;24.00;40.90;;;;;;5050646;28;19928;-84
2021/03/29 10:22:17;;;;;;;7.15;2.42;;;24.30;40.40;;;;;;5035187;28;20029;-84
2021/03/29 10:25:06;;;;;;;6.40;2.30;;;24.30;39.30;;;;;;5033810;28;20431;-84
2021/03/29 10:27:38;;;;;;;;;;;23.70;40.10;;;;;;5033876;28;20152;-84
2021/03/29 10:30:06;;;;;;;6.70;2.42;;;23.50;41.10;;;;;;5050334;28;19905;-84
2021/03/29 10:32:32;;;;;;;9.57;3.35;;;23.50;41.00;;;;;;5034227;28;20017;-84
2021/03/29 10:34:57;;;;;;;9.90;2.58;;;23.70;41.50;;;;;;5034733;28;20037;-84
2021/03/29 10:37:28;;;;;;;5.57;2.22;;;24.50;40.60;;;;;;5033498;28;20029;-84
2021/03/29 10:39:57;;;;;;;9.57;2.70;;;25.00;38.60;;;;;;5033374;28;20048;-84
2021/03/29 10:42:25;;;;;;;5.18;2.47;;;24.90;38.70;;;;;;5019937;28;20049;-84
2021/03/29 10:44:55;;;;;;;5.45;2.15;;;24.80;39.10;;;;;;5015912;28;20092;-84
2021/03/29 10:47:22;;;;;;;5.80;2.10;;;24.50;40.60;;;;;;5033387;28;20108;-84
2021/03/29 10:49:48;;;;;;;4.57;2.10;;;25.30;39.20;;;;;;5033351;28;20556;-83
2021/03/29 10:52:13;;;;;;;6.22;2.63;;;25.80;37.50;;;;;;5032790;28;20120;-84
2021/03/29 10:54:39;;;;;;;4.70;2.00;;;25.70;38.70;;;;;;5026262;28;20026;-83
2021/03/29 10:57:05;;;;;;;9.20;2.45;;;25.30;38.70;;;;;;5012374;28;20048;-83
2021/03/29 10:59:31;;;;;;;6.68;2.30;;;25.30;38.50;;;;;;5006040;28;20653;-83
2021/03/29 11:01:57;;;;;;;6.75;2.40;;;25.60;36.50;;;;;;5014392;28;20041;-83
2021/03/29 11:04:23;;;;;;;6.35;2.38;;;25.30;37.70;;;;;;5033905;28;20435;-83
2021/03/29 11:06:49;;;;;;;6.32;1.80;;;25.40;37.90;;;;;;5032403;28;20105;-83
2021/03/29 11:09:14;;;;;;;6.13;2.35;;;26.00;36.90;;;;;;5032540;28;20385;-84
2021/03/29 11:11:40;;;;;;;6.20;2.00;;;26.60;37.60;;;;;;5024338;28;20029;-83
2021/03/29 11:14:05;;;;;;;6.57;2.78;;;26.70;36.00;;;;;;5032949;28;20067;-83
2021/03/29 11:16:31;;;;;;;6.05;2.30;;;26.80;35.10;;;;;;5033731;28;20081;-84
2021/03/29 11:18:57;;;;;;;6.43;1.80;;;27.00;35.00;;;;;;5032873;28;20038;-84
2021/03/29 11:21:23;;;;;;;6.50;2.78;;;27.40;36.00;;;;;;5033392;28;20476;-84
2021/03/29 11:23:48;;;;;;;6.45;2.42;;;27.80;34.50;;;;;;5032069;28;20039;-84
2021/03/29 11:26:14;;;;;;;9.75;2.80;;;27.30;34.50;;;;;;5033135;28;20113;-84
2021/03/29 11:28:40;;;;;;;5.07;2.20;;;27.40;34.50;;;;;;5033258;28;20392;-84
2021/03/29 11:31:06;;;;;;;9.43;2.40;;;27.00;33.70;;;;;;5026173;28;20037;-84
2021/03/29 11:33:32;;;;;;;8.23;2.38;;;26.80;35.50;;;;;;5031830;28;20032;-84
2021/03/29 11:35:57;;;;;;;6.13;2.10;;;27.20;33.20;;;;;;5025998;28;20116;-84
2021/03/29 11:38:23;;;;;;;6.22;3.10;;;27.10;33.30;;;;;;5033276;28;20477;-84
2021/03/29 11:40:48;;;;;;;5.45;2.63;;;27.60;33.00;;;;;;5032822;28;20057;-84
2021/03/29 11:43:14;;;;;;;4.78;2.10;;;27.80;32.60;;;;;;5026383;28;20022;-84
2021/03/29 11:45:40;;;;;;;5.45;2.60;;;27.60;32.00;;;;;;5031639;28;20025;-84
2021/03/29 11:48:06;;;;;;;5.63;2.40;;;27.00;32.40;;;;;;5026309;28;20033;-83
2021/03/29 11:50:32;;;;;;;7.30;2.30;;;27.10;33.60;;;;;;5031535;28;20112;-84
2021/03/29 11:52:57;;;;;;;7.57;2.42;;;27.00;31.70;;;;;;5031329;28;20485;-84
2021/03/29 11:55:23;;;;;;;6.18;2.85;;;27.40;32.70;;;;;;5026084;28;20033;-84
2021/03/29 11:57:50;;;;;;;7.45;2.38;;;27.70;31.80;;;;;;5032185;28;20491;-84
2021/03/29 12:00:28;;;;;;;7.53;2.75;;;27.60;32.30;;;;;;5025113;28;20100;-84
2021/03/29 12:03:13;;;;;;;6.22;2.42;;;27.60;31.00;;;;;;5027974;28;20053;-84
2021/03/29 12:05:46;;;;;;;3.78;1.92;;;27.70;30.50;;;;;;5029541;28;20060;-84
2021/03/29 12:13:35;;;;;;;5.55;2.15;;;28.30;30.40;;;;;;5030140;28;20044;-84
2021/03/29 12:16:02;;;;;;;6.22;2.40;;;28.40;29.80;;;;;;5031118;28;20014;-84
2021/03/29 12:18:46;;;;;;;4.53;2.35;;;28.00;30.30;;;;;;5031281;28;20022;-84
2021/03/29 12:21:21;;;;;;;3.92;1.95;;;27.60;30.60;;;;;;5032380;28;20025;-84
2021/03/29 12:23:49;;;;;;;5.43;2.42;;;27.40;30.90;;;;;;5023229;28;20075;-84
2021/03/29 12:26:16;;;;;;;7.63;2.53;;;27.20;31.90;;;;;;5030068;28;20021;-84
2021/03/29 12:28:46;;;;;;;7.95;2.78;;;27.30;31.50;;;;;;5030595;28;20025;-83
2021/03/29 12:31:13;;;;;;;5.32;2.53;;;27.40;31.80;;;;;;5024975;28;20503;-83
2021/03/29 12:33:41;;;;;;;4.63;2.17;;;27.40;31.70;;;;;;5025634;28;20018;-84
2021/03/29 12:36:08;;;;;;;6.13;2.40;;;27.80;31.70;;;;;;5030548;28;20040;-84
2021/03/29 12:38:36;;;;;;;5.75;2.38;;;28.40;30.30;;;;;;5032708;28;20057;-83
2021/03/29 12:41:05;;;;;;;4.18;2.03;;;28.80;30.00;;;;;;5031349;28;20514;-84
2021/03/29 12:43:38;;;;;;;7.00;2.10;;;29.00;30.30;;;;;;5031101;28;20485;-83
2021/03/29 12:46:05;;;;;;;6.15;2.53;;;28.90;30.70;;;;;;5031637;28;20021;-84
2021/03/29 12:48:33;;;;;;;7.53;2.40;;;28.90;29.20;;;;;;5030558;28;20044;-84
2021/03/29 12:51:04;;;;;;;5.55;2.75;;;29.00;29.80;;;;;;5029994;28;20024;-84
2021/03/29 12:53:30;;;;;;;4.32;2.17;;;29.00;29.00;;;;;;5032231;28;20030;-83
2021/03/29 12:55:56;;;;;;;5.70;2.00;;;28.50;29.30;;;;;;5031287;28;20017;-84
2021/03/29 12:58:23;;;;;;;8.10;2.78;;;28.10;29.60;;;;;;5031258;28;20022;-84
2021/03/29 13:00:49;;;;;;;3.50;2.08;;;27.90;29.10;;;;;;5028682;28;20033;-84
2021/03/29 13:03:16;;;;;;;5.75;2.50;;;27.90;30.00;;;;;;5031101;28;20032;-84
2021/03/29 13:06:27;;;;;;;7.13;2.35;;;27.80;28.90;;;;;;5031280;28;20031;-84
2021/03/29 13:08:33;;;;;;;10.35;2.67;;;28.00;29.50;;;;;;5023582;28;20105;-85
2021/03/29 13:13:32;;;;;;;6.03;2.40;;;28.60;29.90;;;;;;5032375;28;20026;-84
2021/03/29 13:15:57;;;;;;;4.82;2.22;;;29.00;29.30;;;;;;5031197;28;20045;-84